Time;durP1;ratioP1;P1;durP2;ratioP2;P2;SDS_P1;SDS_P2;PMS_P1;PMS_P2;Temp;Humidity;BMP_temperature;BMP_pressure;BME280_temperature;BME280_humidity;BME280_pressure;Samples;Min_cycle;Max_cycle;Signal;HPM_P1;HPM_P2
2023/11/03 00:00:32;;;;;;;;;;;23.60;47.20;;;;;;5113965;28;19924;-58
2023/11/03 00:02:59;;;;;;;;;;;23.60;47.10;;;;;;5114709;28;19974;-55
2023/11/03 00:05:26;;;;;;;;;;;23.60;47.10;;;;;;5114567;28;20287;-58
2023/11/03 00:07:54;;;;;;;;;;;23.60;47.10;;;;;;5113764;28;20011;-57
2023/11/03 00:10:21;;;;;;;;;;;23.60;47.10;;;;;;5114483;28;19924;-56
2023/11/03 00:12:48;;;;;;;;;;;23.60;47.10;;;;;;5114376;28;20287;-58
2023/11/03 00:15:17;;;;;;;;;;;23.60;47.10;;;;;;5129961;27;19924;-56
2023/11/03 00:17:44;;;;;;;;;;;23.60;47.10;;;;;;5113607;28;20315;-56
2023/11/03 00:20:14;;;;;;;;;;;23.60;47.10;;;;;;5114583;28;19982;-56
2023/11/03 00:22:42;;;;;;;;;;;23.60;47.10;;;;;;5113947;28;20376;-57
2023/11/03 00:25:13;;;;;;;;;;;23.60;47.10;;;;;;5113760;28;20010;-57
2023/11/03 00:27:42;;;;;;;;;;;23.60;47.10;;;;;;5113251;28;19924;-58
2023/11/03 00:30:10;;;;;;;;;;;23.60;47.10;;;;;;5113707;28;20022;-57
2023/11/03 00:32:37;;;;;;;;;;;23.60;47.10;;;;;;5113755;28;20327;-57
2023/11/03 00:35:08;;;;;;;;;;;23.60;47.10;;;;;;5113857;28;19924;-56
2023/11/03 00:37:36;;;;;;;;;;;23.60;47.10;;;;;;5113480;28;19970;-57
2023/11/03 00:40:04;;;;;;;;;;;23.60;47.10;;;;;;5113452;28;19934;-57
2023/11/03 00:42:31;;;;;;;;;;;23.60;47.70;;;;;;5113800;28;19928;-58
2023/11/03 00:44:58;;;;;;;;;;;23.60;47.20;;;;;;5113858;28;19924;-55
2023/11/03 00:47:25;;;;;;;;;;;23.60;47.20;;;;;;5112038;28;19924;-59
2023/11/03 00:49:52;;;;;;;;;;;23.60;47.20;;;;;;5113686;28;20328;-57
2023/11/03 00:52:19;;;;;;;;;;;23.60;47.10;;;;;;5113746;28;20010;-56
2023/11/03 00:54:46;;;;;;;;;;;23.50;47.10;;;;;;5113527;28;19923;-58
2023/11/03 00:57:13;;;;;;;;;;;23.60;47.20;;;;;;5113338;28;19927;-57
2023/11/03 00:59:41;;;;;;;;;;;23.60;47.20;;;;;;5113641;28;19927;-57
2023/11/03 01:02:11;;;;;;;;;;;23.60;47.20;;;;;;5113622;28;19924;-57
2023/11/03 01:04:38;;;;;;;;;;;23.60;47.20;;;;;;5113158;28;19923;-58
2023/11/03 01:07:05;;;;;;;;;;;23.60;47.20;;;;;;5113383;28;19961;-56
2023/11/03 01:09:32;;;;;;;;;;;23.60;47.10;;;;;;5113410;28;19967;-58
2023/11/03 01:11:59;;;;;;;;;;;23.60;47.10;;;;;;5113284;28;19930;-57
2023/11/03 01:14:27;;;;;;;;;;;23.60;47.10;;;;;;5113521;28;19931;-58
2023/11/03 01:16:54;;;;;;;;;;;23.60;47.10;;;;;;5095427;28;19963;-55
2023/11/03 01:19:21;;;;;;;;;;;23.60;47.10;;;;;;5113126;28;19982;-57
2023/11/03 01:21:49;;;;;;;;;;;23.60;47.00;;;;;;5113626;28;20346;-57
2023/11/03 01:24:16;;;;;;;;;;;23.60;47.00;;;;;;5113669;28;20268;-58
2023/11/03 01:26:43;;;;;;;;;;;23.60;47.00;;;;;;5113253;28;19977;-57
2023/11/03 01:29:12;;;;;;;;;;;23.50;47.00;;;;;;5113712;28;19935;-58
2023/11/03 01:31:39;;;;;;;;;;;23.60;47.10;;;;;;5113173;28;20295;-58
2023/11/03 01:34:06;;;;;;;;;;;23.60;47.00;;;;;;5113207;28;19969;-57
2023/11/03 01:36:35;;;;;;;;;;;23.60;47.10;;;;;;5113067;28;19930;-55
2023/11/03 01:39:06;;;;;;;;;;;23.60;47.10;;;;;;5116773;28;20277;-57
2023/11/03 01:41:33;;;;;;;;;;;23.50;47.00;;;;;;5117240;28;19928;-60
2023/11/03 01:44:07;;;;;;;;;;;23.60;47.10;;;;;;5117218;28;19932;-58
2023/11/03 01:46:35;;;;;;;;;;;23.60;47.10;;;;;;5132680;27;19977;-58
2023/11/03 01:49:03;;;;;;;;;;;23.60;47.10;;;;;;5116835;28;19924;-57
2023/11/03 01:51:30;;;;;;;;;;;23.50;47.00;;;;;;5117091;28;19994;-57
2023/11/03 01:53:58;;;;;;;;;;;23.60;47.10;;;;;;5116551;28;19924;-55
2023/11/03 01:56:26;;;;;;;;;;;23.50;47.00;;;;;;5116978;28;19931;-57
2023/11/03 01:58:53;;;;;;;;;;;23.50;47.00;;;;;;5116559;28;19924;-53
2023/11/03 02:01:20;;;;;;;;;;;23.60;47.10;;;;;;5117025;28;19928;-54
2023/11/03 02:03:48;;;;;;;;;;;23.50;47.00;;;;;;5116762;28;20003;-55
2023/11/03 02:06:16;;;;;;;;;;;23.50;47.00;;;;;;5116289;28;20394;-56
2023/11/03 02:08:43;;;;;;;;;;;23.50;47.00;;;;;;5116463;28;20011;-58
2023/11/03 02:11:10;;;;;;;;;;;23.50;47.10;;;;;;5098119;28;19978;-57
2023/11/03 02:13:37;;;;;;;;;;;23.50;47.00;;;;;;5116313;28;19970;-58
2023/11/03 02:16:04;;;;;;;;;;;23.50;47.00;;;;;;5115661;28;19974;-57
2023/11/03 02:18:31;;;;;;;;;;;23.50;47.00;;;;;;5116257;28;19924;-57
2023/11/03 02:20:58;;;;;;;;;;;23.50;47.00;;;;;;5081562;28;20390;-57
2023/11/03 02:23:25;;;;;;;;;;;23.50;47.10;;;;;;5098711;28;19993;-58
2023/11/03 02:25:52;;;;;;;;;;;23.50;47.00;;;;;;5097758;28;19927;-56
2023/11/03 02:28:19;;;;;;;;;;;23.60;47.10;;;;;;5097930;28;19923;-51
2023/11/03 02:30:49;;;;;;;;;;;23.50;47.00;;;;;;5116473;28;19924;-55
2023/11/03 02:33:16;;;;;;;;;;;23.50;47.00;;;;;;5116560;28;19924;-56
2023/11/03 02:35:43;;;;;;;;;;;23.50;46.90;;;;;;5115898;28;19924;-58
2023/11/03 02:38:16;;;;;;;;;;;23.50;46.90;;;;;;5116215;28;19969;-57
2023/11/03 02:40:43;;;;;;;;;;;23.60;46.90;;;;;;5116212;28;20333;-58
2023/11/03 02:43:10;;;;;;;;;;;23.60;46.90;;;;;;5115613;28;20441;-57
2023/11/03 02:45:37;;;;;;;;;;;23.60;46.90;;;;;;5115778;28;19932;-57
2023/11/03 02:48:05;;;;;;;;;;;23.50;46.90;;;;;;5115517;28;19935;-56
2023/11/03 02:50:32;;;;;;;;;;;23.60;46.90;;;;;;5115294;28;19928;-55
2023/11/03 02:52:59;;;;;;;;;;;23.60;46.90;;;;;;5115914;28;19974;-57
2023/11/03 02:55:26;;;;;;;;;;;23.50;46.90;;;;;;5116035;28;19924;-56
2023/11/03 02:57:53;;;;;;;;;;;23.50;46.90;;;;;;5115572;28;20264;-57
2023/11/03 03:00:22;;;;;;;;;;;23.50;46.90;;;;;;5115321;28;19930;-56
2023/11/03 03:02:49;;;;;;;;;;;23.50;46.90;;;;;;5115398;28;20364;-57
2023/11/03 03:05:16;;;;;;;;;;;23.50;46.90;;;;;;5115312;28;19931;-57
2023/11/03 03:07:45;;;;;;;;;;;23.50;46.90;;;;;;5115518;28;19924;-60
2023/11/03 03:10:12;;;;;;;;;;;23.50;46.90;;;;;;5115603;28;19924;-57
2023/11/03 03:12:41;;;;;;;;;;;23.50;46.90;;;;;;5115442;28;19959;-56
2023/11/03 03:15:09;;;;;;;;;;;23.50;46.90;;;;;;5115247;28;20351;-56
2023/11/03 03:17:36;;;;;;;;;;;23.50;46.90;;;;;;5114677;28;19931;-57
2023/11/03 03:20:03;;;;;;;;;;;23.50;46.90;;;;;;5115343;28;19928;-57
2023/11/03 03:22:30;;;;;;;;;;;23.50;46.90;;;;;;5114916;28;19924;-57
2023/11/03 03:24:57;;;;;;;;;;;23.50;46.90;;;;;;5114500;28;19924;-57
2023/11/03 03:27:24;;;;;;;;;;;23.50;46.90;;;;;;5115323;28;19924;-57
2023/11/03 03:29:51;;;;;;;;;;;23.50;46.90;;;;;;5114351;28;20375;-58
2023/11/03 03:32:18;;;;;;;;;;;23.50;46.90;;;;;;5115066;28;19923;-57
2023/11/03 03:34:45;;;;;;;;;;;23.50;47.00;;;;;;5114813;28;20018;-57
2023/11/03 03:37:13;;;;;;;;;;;23.50;47.00;;;;;;5114727;28;20338;-56
2023/11/03 03:39:40;;;;;;;;;;;23.50;46.90;;;;;;5114769;28;20390;-56
2023/11/03 03:42:07;;;;;;;;;;;23.50;46.90;;;;;;5114159;28;19924;-53
2023/11/03 03:44:37;;;;;;;;;;;23.50;46.90;;;;;;5114885;28;19959;-57
2023/11/03 03:47:04;;;;;;;;;;;23.50;46.90;;;;;;5114219;28;20375;-57
2023/11/03 03:49:31;;;;;;;;;;;23.50;46.90;;;;;;5114055;28;19928;-56
2023/11/03 03:51:58;;;;;;;;;;;23.50;46.80;;;;;;5114383;28;20421;-57
2023/11/03 03:54:25;;;;;;;;;;;23.50;46.80;;;;;;5114792;28;19924;-56
2023/11/03 03:56:52;;;;;;;;;;;23.50;46.80;;;;;;5114923;28;19924;-57
2023/11/03 03:59:19;;;;;;;;;;;23.50;46.70;;;;;;5114521;28;19927;-56
2023/11/03 04:01:47;;;;;;;;;;;23.60;46.80;;;;;;5114254;28;19923;-57
2023/11/03 04:04:14;;;;;;;;;;;23.60;46.80;;;;;;5114787;28;19923;-56
2023/11/03 04:06:43;;;;;;;;;;;23.50;46.80;;;;;;5114262;28;19953;-57
2023/11/03 04:09:10;;;;;;;;;;;23.50;46.80;;;;;;5114029;28;19924;-56
2023/11/03 04:11:37;;;;;;;;;;;23.50;46.80;;;;;;5114476;28;20383;-56
2023/11/03 04:14:04;;;;;;;;;;;23.50;46.80;;;;;;5114186;28;19970;-57
2023/11/03 04:16:32;;;;;;;;;;;23.50;46.80;;;;;;5113999;28;19931;-58
2023/11/03 04:18:59;;;;;;;;;;;23.50;46.80;;;;;;5114241;28;20006;-56
2023/11/03 04:21:27;;;;;;;;;;;23.50;46.90;;;;;;5114195;28;20022;-57
2023/11/03 04:23:54;;;;;;;;;;;23.50;46.80;;;;;;5113074;28;20379;-57
2023/11/03 04:26:21;;;;;;;;;;;23.50;46.80;;;;;;5114386;28;19953;-56
2023/11/03 04:28:48;;;;;;;;;;;23.50;46.80;;;;;;5113638;28;19953;-57
2023/11/03 04:31:15;;;;;;;;;;;23.50;46.80;;;;;;5113417;28;19924;-55
2023/11/03 04:33:43;;;;;;;;;;;23.50;46.80;;;;;;5113940;28;19927;-56
2023/11/03 04:36:10;;;;;;;;;;;23.50;46.80;;;;;;5113626;28;20023;-57
2023/11/03 04:38:37;;;;;;;;;;;23.50;46.80;;;;;;5113469;28;19928;-57
2023/11/03 04:41:04;;;;;;;;;;;23.50;46.60;;;;;;5109077;28;19924;-56
2023/11/03 04:43:35;;;;;;;;;;;23.50;46.50;;;;;;5102045;28;19928;-57
2023/11/03 04:46:03;;;;;;;;;;;23.50;46.40;;;;;;5092779;28;19928;-59
2023/11/03 04:48:30;;;;;;;;;;;23.50;46.40;;;;;;5113195;28;19931;-57
2023/11/03 04:50:57;;;;;;;;;;;23.50;46.30;;;;;;5113836;28;20035;-57
2023/11/03 04:53:25;;;;;;;;;;;23.50;46.30;;;;;;5101700;28;19925;-56
2023/11/03 04:55:52;;;;;;;;;;;23.50;46.20;;;;;;5103295;28;19979;-57
2023/11/03 04:58:20;;;;;;;;;;;23.50;46.20;;;;;;5093364;28;20330;-55
2023/11/03 05:00:47;;;;;;;;;;;23.50;46.20;;;;;;5105556;27;19949;-55
2023/11/03 05:03:15;;;;;;;;;;;23.50;46.10;;;;;;5111789;28;19923;-57
2023/11/03 05:05:42;;;;;;;;;;;23.50;46.10;;;;;;5113588;28;19934;-56
2023/11/03 05:08:10;;;;;;;;;;;23.50;46.00;;;;;;5113654;28;20368;-57
2023/11/03 05:10:37;;;;;;;;;;;23.60;46.00;;;;;;5113468;28;19931;-57
2023/11/03 05:13:04;;;;;;;;;;;23.50;45.90;;;;;;5114611;28;19990;-56
2023/11/03 05:15:35;;;;;;;;;;;23.50;45.90;;;;;;5117611;27;20319;-56
2023/11/03 05:18:04;;;;;;;;;;;23.50;46.40;;;;;;5116420;28;19927;-57
2023/11/03 05:20:31;;;;;;;;;;;23.50;45.90;;;;;;5134451;27;19927;-57
2023/11/03 05:22:58;;;;;;;;;;;23.50;45.80;;;;;;5138286;27;19977;-57
2023/11/03 05:25:25;;;;;;;;;;;23.50;45.80;;;;;;5137917;27;19977;-57
2023/11/03 05:27:53;;;;;;;;;;;23.50;45.90;;;;;;5137523;27;19954;-57
2023/11/03 05:30:21;;;;;;;;;;;23.50;45.80;;;;;;5136810;27;19924;-57
2023/11/03 05:32:49;;;;;;;;;;;23.50;45.80;;;;;;5137833;27;19971;-57
2023/11/03 05:35:16;;;;;;;;;;;23.50;45.70;;;;;;5110439;27;19923;-56
2023/11/03 05:37:43;;;;;;;;;;;23.50;45.70;;;;;;5099395;27;20452;-57
2023/11/03 05:40:11;;;;;;;;;;;23.50;45.70;;;;;;5114651;28;20579;-57
2023/11/03 05:42:38;;;;;;;;;;;23.60;45.80;;;;;;5116265;28;19923;-56
2023/11/03 05:45:05;;;;;;;;;;;23.50;45.70;;;;;;5116480;28;19927;-57
2023/11/03 05:47:33;;;;;;;;;;;23.50;45.70;;;;;;5116367;28;20036;-57
2023/11/03 05:50:00;;;;;;;;;;;23.50;45.60;;;;;;5114825;28;19974;-57
2023/11/03 05:52:27;;;;;;;;;;;23.50;45.60;;;;;;5098494;28;19973;-57
2023/11/03 05:54:54;;;;;;;;;;;23.50;45.60;;;;;;5116672;28;19965;-57
2023/11/03 05:57:21;;;;;;;;;;;23.50;45.60;;;;;;5116787;28;20326;-57
2023/11/03 05:59:49;;;;;;;;;;;23.50;45.60;;;;;;5097732;28;19988;-56
2023/11/03 06:02:16;;;;;;;;;;;23.50;45.60;;;;;;5116047;28;19927;-57
2023/11/03 06:04:43;;;;;;;;;;;23.50;45.60;;;;;;5095597;28;20267;-57
2023/11/03 06:07:11;;;;;;;;;;;23.50;45.50;;;;;;5103104;27;19985;-61
2023/11/03 06:09:38;;;;;;;;;;;23.50;45.60;;;;;;5108283;27;20409;-59
2023/11/03 06:12:06;;;;;;;;;;;23.50;45.60;;;;;;5117404;27;20334;-56
2023/11/03 06:14:33;;;;;;;;;;;23.50;45.80;;;;;;5114339;27;19927;-56
2023/11/03 06:17:00;;;;;;;;;;;23.50;45.90;;;;;;5116098;27;20022;-57
2023/11/03 06:19:28;;;;;;;;;;;23.60;46.10;;;;;;5111053;28;20437;-59
2023/11/03 06:21:55;;;;;;;;;;;23.60;46.20;;;;;;5117140;27;20394;-58
2023/11/03 06:24:22;;;;;;;;;;;23.60;46.40;;;;;;5105769;27;19931;-56
2023/11/03 06:26:50;;;;;;;;;;;23.60;46.50;;;;;;5105392;27;20419;-58
2023/11/03 06:29:17;;;;;;;;;;;23.60;46.60;;;;;;5105837;27;19939;-60
2023/11/03 06:31:44;;;;;;;;;;;23.70;46.70;;;;;;5100756;27;19928;-59
2023/11/03 06:34:11;;;;;;;;;;;23.70;46.70;;;;;;5073393;28;20784;-54
2023/11/03 06:36:40;;;;;;;;;;;23.70;46.60;;;;;;5093266;28;19931;-55
2023/11/03 06:39:15;;;;;;;;;;;23.80;46.60;;;;;;5107655;27;19934;-56
2023/11/03 06:41:43;;;;;;;;;;;23.80;46.60;;;;;;5111797;27;19927;-51
2023/11/03 06:44:11;;;;;;;;;;;23.80;46.50;;;;;;5102480;27;19935;-58
2023/11/03 06:46:39;;;;;;;;;;;23.90;46.40;;;;;;5107713;27;19931;-56
2023/11/03 06:49:06;;;;;;;;;;;23.90;46.30;;;;;;5107449;27;19923;-57
2023/11/03 06:51:33;;;;;;;;;;;23.90;46.20;;;;;;5105458;27;19938;-60
2023/11/03 06:54:01;;;;;;;;;;;23.90;46.10;;;;;;5108258;27;19973;-58
2023/11/03 06:56:28;;;;;;;;;;;24.00;46.20;;;;;;5105215;27;19932;-59
2023/11/03 06:58:55;;;;;;;;;;;24.00;46.20;;;;;;5100953;27;19935;-60
2023/11/03 07:01:23;;;;;;;;;;;24.00;46.10;;;;;;5095733;27;20921;-59
2023/11/03 07:03:51;;;;;;;;;;;24.00;46.10;;;;;;5096449;27;19936;-58
2023/11/03 07:06:20;;;;;;;;;;;24.00;46.10;;;;;;5103359;27;20343;-58
2023/11/03 07:08:48;;;;;;;;;;;24.10;46.20;;;;;;5102534;27;19938;-59
2023/11/03 07:11:17;;;;;;;;;;;24.10;46.40;;;;;;5102079;27;20413;-58
2023/11/03 07:13:45;;;;;;;;;;;24.10;46.40;;;;;;5104765;27;19930;-59
2023/11/03 07:16:13;;;;;;;;;;;24.10;46.50;;;;;;5102338;28;20566;-60
2023/11/03 07:18:43;;;;;;;;;;;24.20;46.80;;;;;;5100746;27;19981;-60
2023/11/03 07:21:15;;;;;;;;;;;24.20;46.90;;;;;;5087125;28;19986;-58
2023/11/03 07:23:42;;;;;;;;;;;24.20;47.00;;;;;;5097165;28;19924;-59
2023/11/03 07:26:13;;;;;;;;;;;24.30;47.10;;;;;;5091158;27;19924;-57
2023/11/03 07:28:45;;;;;;;;;;;24.30;47.10;;;;;;5097684;27;19927;-56
2023/11/03 07:31:12;;;;;;;;;;;24.30;47.00;;;;;;5092946;27;19936;-58
2023/11/03 07:33:41;;;;;;;;;;;24.30;47.10;;;;;;5096760;27;19990;-57
2023/11/03 07:36:09;;;;;;;;;;;24.40;47.20;;;;;;5104590;27;19932;-59
2023/11/03 07:38:37;;;;;;;;;;;24.40;47.00;;;;;;5106849;27;19982;-59
2023/11/03 07:41:08;;;;;;;;;;;24.40;46.80;;;;;;5106805;27;19977;-59
2023/11/03 07:43:38;;;;;;;;;;;24.50;46.90;;;;;;5094902;27;19924;-59
2023/11/03 07:46:05;;;;;;;;;;;24.50;46.60;;;;;;5102827;27;19943;-60
2023/11/03 07:48:33;;;;;;;;;;;24.50;46.70;;;;;;5097094;27;19932;-60
2023/11/03 07:51:01;;;;;;;;;;;24.50;46.70;;;;;;5108849;27;19924;-59
2023/11/03 07:53:29;;;;;;;;;;;24.50;46.70;;;;;;5108408;27;20021;-59
2023/11/03 07:55:56;;;;;;;;;;;24.50;46.60;;;;;;5099638;27;19932;-59
2023/11/03 07:58:23;;;;;;;;;;;24.50;46.50;;;;;;5104266;27;20697;-57
2023/11/03 08:00:50;;;;;;;;;;;24.50;46.50;;;;;;5093975;27;19931;-57
2023/11/03 08:03:18;;;;;;;;;;;24.50;46.60;;;;;;5096713;27;19930;-58
2023/11/03 08:05:46;;;;;;;;;;;24.50;46.80;;;;;;5104924;27;19965;-58
2023/11/03 08:08:15;;;;;;;;;;;24.50;46.90;;;;;;5115178;27;19939;-56
2023/11/03 08:10:42;;;;;;;;;;;24.60;47.00;;;;;;5110368;27;19924;-56
2023/11/03 08:13:09;;;;;;;;;;;24.60;47.20;;;;;;5112116;27;19932;-58
2023/11/03 08:15:37;;;;;;;;;;;24.60;47.10;;;;;;5121395;27;19955;-58
2023/11/03 08:18:05;;;;;;;;;;;24.60;47.10;;;;;;5105355;27;19954;-57
2023/11/03 08:20:33;;;;;;;;;;;24.60;47.00;;;;;;5105264;27;19928;-59
2023/11/03 08:23:00;;;;;;;;;;;24.60;47.50;;;;;;5112205;27;19927;-59
2023/11/03 08:25:28;;;;;;;;;;;24.60;47.00;;;;;;5109097;28;19931;-59
2023/11/03 08:27:56;;;;;;;;;;;24.60;47.00;;;;;;5104422;27;20467;-59
2023/11/03 08:30:23;;;;;;;;;;;24.60;47.00;;;;;;5099245;28;19938;-61
2023/11/03 08:32:51;;;;;;;;;;;24.60;47.00;;;;;;5086486;27;19946;-60
2023/11/03 08:35:20;;;;;;;;;;;24.60;47.20;;;;;;5104229;27;19924;-60
2023/11/03 08:37:48;;;;;;;;;;;24.60;47.40;;;;;;5103516;28;19927;-60
2023/11/03 08:40:16;;;;;;;;;;;24.60;47.60;;;;;;5094766;28;20340;-59
2023/11/03 08:42:44;;;;;;;;;;;24.60;47.50;;;;;;5112802;27;19927;-59
2023/11/03 08:45:12;;;;;;;;;;;24.60;47.50;;;;;;5091168;28;19940;-57
2023/11/03 08:47:43;;;;;;;;;;;24.60;47.40;;;;;;5102755;28;20378;-58
2023/11/03 08:50:13;;;;;;;;;;;24.60;47.30;;;;;;5104096;27;19928;-59
2023/11/03 08:52:44;;;;;;;;;;;24.60;47.30;;;;;;5111073;28;19932;-59
2023/11/03 08:55:13;;;;;;;;;;;24.60;47.20;;;;;;5104586;28;20350;-58
2023/11/03 08:57:42;;;;;;;;;;;24.60;47.20;;;;;;5095276;28;19974;-58
2023/11/03 09:00:11;;;;;;;;;;;24.50;47.10;;;;;;5089214;28;19932;-59
2023/11/03 09:02:41;;;;;;;;;;;24.50;47.20;;;;;;5105858;28;19966;-59
2023/11/03 09:05:11;;;;;;;;;;;24.50;47.20;;;;;;5108771;28;20015;-59
2023/11/03 09:07:40;;;;;;;;;;;24.50;47.20;;;;;;5106877;28;19927;-59
2023/11/03 09:10:09;;;;;;;;;;;24.50;47.20;;;;;;5106413;28;19932;-58
2023/11/03 09:12:37;;;;;;;;;;;24.50;47.10;;;;;;5105637;28;19943;-59
2023/11/03 09:15:07;;;;;;;;;;;24.50;47.10;;;;;;5107791;28;19993;-59
2023/11/03 09:17:34;;;;;;;;;;;24.50;47.10;;;;;;5107660;28;20398;-58
2023/11/03 09:20:04;;;;;;;;;;;24.50;47.10;;;;;;5102221;28;19942;-58
2023/11/03 09:22:31;;;;;;;;;;;24.50;47.10;;;;;;5105292;28;19978;-59
2023/11/03 09:25:05;;;;;;;;;;;24.50;47.10;;;;;;5087171;28;19928;-60
2023/11/03 09:27:33;;;;;;;;;;;24.50;47.10;;;;;;5108245;28;19943;-58
2023/11/03 09:30:04;;;;;;;;;;;24.50;47.10;;;;;;5104505;28;19938;-58
2023/11/03 09:32:32;;;;;;;;;;;24.50;47.10;;;;;;5092314;28;19981;-59
2023/11/03 09:35:00;;;;;;;;;;;24.50;47.10;;;;;;5102940;28;19935;-59
2023/11/03 09:37:27;;;;;;;;;;;24.50;47.00;;;;;;5105049;28;19930;-59
2023/11/03 09:39:54;;;;;;;;;;;24.60;47.10;;;;;;5105320;27;19924;-59
2023/11/03 09:42:22;;;;;;;;;;;24.60;47.00;;;;;;5102855;28;19923;-59
2023/11/03 09:44:50;;;;;;;;;;;24.50;47.00;;;;;;5110799;28;20020;-59
2023/11/03 09:47:17;;;;;;;;;;;24.50;47.00;;;;;;5116150;28;19928;-59
2023/11/03 09:49:45;;;;;;;;;;;24.50;47.00;;;;;;5093979;28;19928;-59
2023/11/03 09:52:13;;;;;;;;;;;24.50;47.00;;;;;;5091534;28;19930;-60
2023/11/03 09:54:41;;;;;;;;;;;24.50;47.00;;;;;;5108034;28;19932;-59
2023/11/03 09:57:12;;;;;;;;;;;24.50;47.10;;;;;;5099422;28;19966;-58
2023/11/03 09:59:40;;;;;;;;;;;24.50;47.10;;;;;;5101509;27;20918;-57
2023/11/03 10:02:13;;;;;;;;;;;24.50;47.10;;;;;;5101578;27;19931;-59
2023/11/03 10:04:40;;;;;;;;;;;24.50;47.20;;;;;;5104730;27;19977;-58
2023/11/03 10:07:11;;;;;;;;;;;24.50;47.40;;;;;;5100667;27;19941;-59
2023/11/03 10:09:45;;;;;;;;;;;24.50;47.50;;;;;;5107788;27;19935;-59
2023/11/03 10:12:20;;;;;;;;;;;24.60;47.90;;;;;;5106373;27;19924;-59
2023/11/03 10:14:48;;;;;;;;;;;24.70;48.00;;;;;;5106280;27;19962;-58
2023/11/03 10:17:16;;;;;;;;;;;24.70;47.90;;;;;;5108050;27;20400;-58
2023/11/03 10:19:45;;;;;;;;;;;24.80;47.90;;;;;;5102602;27;19939;-60
2023/11/03 10:22:15;;;;;;;;;;;24.90;47.90;;;;;;5104955;27;19923;-60
2023/11/03 10:24:42;;;;;;;;;;;24.90;47.80;;;;;;5109830;27;20279;-59
2023/11/03 10:27:12;;;;;;;;;;;24.90;47.60;;;;;;5106090;27;19927;-59
2023/11/03 10:29:40;;;;;;;;;;;25.00;47.40;;;;;;5094699;27;19988;-58
2023/11/03 10:32:08;;;;;;;;;;;25.10;47.40;;;;;;5105164;27;19973;-57
2023/11/03 10:34:36;;;;;;;;;;;25.10;47.40;;;;;;5110139;27;19935;-58
2023/11/03 10:37:05;;;;;;;;;;;25.10;47.30;;;;;;5107988;27;19932;-59
2023/11/03 10:39:32;;;;;;;;;;;25.10;47.20;;;;;;5104162;27;19951;-59
2023/11/03 10:42:02;;;;;;;;;;;25.20;47.20;;;;;;5103887;27;19959;-59
2023/11/03 10:44:30;;;;;;;;;;;25.20;47.00;;;;;;5107082;27;19931;-58
2023/11/03 10:47:01;;;;;;;;;;;25.20;47.10;;;;;;5111726;27;20016;-58
2023/11/03 10:49:31;;;;;;;;;;;25.30;47.10;;;;;;5111402;27;19980;-58
2023/11/03 10:52:10;;;;;;;;;;;25.30;47.00;;;;;;5109333;27;19924;-59
2023/11/03 10:54:40;;;;;;;;;;;25.40;47.00;;;;;;5110205;27;19928;-59
2023/11/03 10:57:10;;;;;;;;;;;25.40;47.00;;;;;;5108698;28;19924;-58
2023/11/03 11:00:09;;;;;;;;;;;25.40;47.00;;;;;;5111517;27;20018;-57
2023/11/03 11:02:49;;;;;;;;;;;25.50;46.70;;;;;;5087039;28;20461;-59
2023/11/03 11:05:35;;;;;;;;;;;25.50;46.50;;;;;;5107488;27;19938;-59
2023/11/03 11:08:06;;;;;;;;;;;25.50;46.60;;;;;;5102351;28;19934;-57
2023/11/03 11:10:34;;;;;;;;;;;25.50;46.60;;;;;;5105101;28;19947;-59
2023/11/03 11:13:04;;;;;;;;;;;25.50;46.50;;;;;;5091009;27;19984;-59
2023/11/03 11:15:31;;;;;;;;;;;25.60;46.50;;;;;;5106666;27;19924;-59
2023/11/03 11:18:15;;;;;;;;;;;25.50;46.40;;;;;;5107795;27;19935;-59
2023/11/03 11:20:50;;;;;;;;;;;25.50;46.40;;;;;;5110345;27;19924;-59
2023/11/03 11:23:21;;;;;;;;;;;25.50;46.40;;;;;;5107722;27;20215;-58
2023/11/03 11:25:52;;;;;;;;;;;25.40;46.40;;;;;;5089411;28;19928;-58
2023/11/03 11:28:29;;;;;;;;;;;25.40;46.80;;;;;;5107313;28;19928;-59
2023/11/03 11:30:57;;;;;;;;;;;25.40;46.90;;;;;;5108162;27;19931;-58
2023/11/03 11:33:26;;;;;;;;;;;25.30;46.90;;;;;;5111191;27;19927;-58
2023/11/03 11:35:54;;;;;;;;;;;25.30;46.80;;;;;;5105783;27;19931;-56
2023/11/03 11:38:24;;;;;;;;;;;25.30;46.70;;;;;;5111993;27;19932;-57
2023/11/03 11:40:52;;;;;;;;;;;25.30;46.70;;;;;;5108522;27;20387;-58
2023/11/03 11:43:20;;;;;;;;;;;25.20;46.60;;;;;;5112664;27;19928;-60
2023/11/03 11:45:51;;;;;;;;;;;25.30;46.70;;;;;;5104689;27;19931;-59
2023/11/03 11:48:19;;;;;;;;;;;25.20;46.70;;;;;;5089589;28;20272;-59
2023/11/03 11:50:49;;;;;;;;;;;25.20;46.80;;;;;;5107773;27;20043;-58
2023/11/03 11:53:16;;;;;;;;;;;25.20;46.80;;;;;;5094561;27;20293;-58
2023/11/03 11:55:43;;;;;;;;;;;25.20;46.80;;;;;;5104184;27;19985;-57
2023/11/03 11:58:12;;;;;;;;;;;25.20;46.80;;;;;;5100471;28;19931;-58
2023/11/03 12:00:41;;;;;;;;;;;25.20;46.80;;;;;;5100549;27;19935;-59
2023/11/03 12:03:09;;;;;;;;;;;25.10;46.50;;;;;;5102598;27;19932;-58
2023/11/03 12:05:40;;;;;;;;;;;25.20;46.40;;;;;;5099726;27;19935;-59
2023/11/03 12:08:09;;;;;;;;;;;25.20;46.30;;;;;;5102052;27;20310;-59
2023/11/03 12:10:37;;;;;;;;;;;25.10;46.10;;;;;;5099055;27;19927;-59
2023/11/03 12:13:05;;;;;;;;;;;25.20;46.20;;;;;;5096604;27;20432;-58
2023/11/03 12:15:32;;;;;;;;;;;25.10;46.20;;;;;;5091666;28;19964;-61
2023/11/03 12:18:00;;;;;;;;;;;25.10;46.10;;;;;;5100396;27;20035;-60
2023/11/03 12:20:27;;;;;;;;;;;25.10;46.10;;;;;;5101885;27;19943;-56
2023/11/03 12:22:55;;;;;;;;;;;25.10;46.00;;;;;;5105602;27;19971;-57
2023/11/03 12:25:22;;;;;;;;;;;25.10;46.00;;;;;;5101249;28;19940;-58
2023/11/03 12:27:58;;;;;;;;;;;25.10;45.90;;;;;;5107449;27;19936;-56
2023/11/03 12:30:25;;;;;;;;;;;25.10;46.00;;;;;;5105791;28;19923;-58
2023/11/03 12:32:52;;;;;;;;;;;25.00;46.00;;;;;;5104762;27;19931;-57
2023/11/03 12:35:23;;;;;;;;;;;25.10;46.10;;;;;;5107831;27;19923;-56
2023/11/03 12:37:50;;;;;;;;;;;25.00;46.10;;;;;;5107157;27;19928;-56
2023/11/03 12:40:21;;;;;;;;;;;25.00;46.00;;;;;;5102094;27;19934;-57
2023/11/03 12:42:48;;;;;;;;;;;25.10;46.10;;;;;;5103846;27;19931;-55
2023/11/03 12:45:16;;;;;;;;;;;25.10;46.00;;;;;;5105193;28;20006;-57
2023/11/03 12:47:49;;;;;;;;;;;25.10;46.00;;;;;;5120874;27;19975;-57
2023/11/03 12:50:20;;;;;;;;;;;25.10;46.00;;;;;;5078271;28;20280;-57
2023/11/03 12:53:09;;;;;;;;;;;25.10;45.90;;;;;;5102533;28;19958;-56
2023/11/03 12:55:36;;;;;;;;;;;25.10;45.90;;;;;;5112228;28;19945;-57
2023/11/03 12:58:08;;;;;;;;;;;25.10;45.90;;;;;;5099098;28;20023;-58
2023/11/03 13:00:36;;;;;;;;;;;25.10;45.80;;;;;;5095055;28;19930;-58
2023/11/03 13:03:05;;;;;;;;;;;25.10;45.90;;;;;;5100074;28;20018;-60
2023/11/03 13:05:33;;;;;;;;;;;25.10;45.70;;;;;;5108771;28;20447;-59
2023/11/03 13:08:00;;;;;;;;;;;25.10;45.60;;;;;;5097022;28;19935;-58
2023/11/03 13:10:30;;;;;;;;;;;25.10;45.50;;;;;;5111275;28;19924;-58
2023/11/03 13:12:59;;;;;;;;;;;25.20;45.40;;;;;;5104984;28;20010;-58
2023/11/03 13:15:27;;;;;;;;;;;25.20;45.40;;;;;;5102296;28;19938;-57
2023/11/03 13:17:54;;;;;;;;;;;25.20;45.30;;;;;;5109269;28;19932;-58
2023/11/03 13:20:24;;;;;;;;;;;25.20;45.30;;;;;;5102699;28;20025;-58
2023/11/03 13:22:59;;;;;;;;;;;25.20;45.20;;;;;;5102970;28;20359;-59
2023/11/03 13:25:27;;;;;;;;;;;25.20;45.20;;;;;;5122384;28;19924;-60
2023/11/03 13:27:55;;;;;;;;;;;25.20;45.20;;;;;;5115389;28;20391;-58
2023/11/03 13:30:22;;;;;;;;;;;25.20;45.20;;;;;;5122166;27;19923;-57
2023/11/03 13:32:49;;;;;;;;;;;25.20;45.20;;;;;;5111046;28;19924;-56
2023/11/03 13:35:18;;;;;;;;;;;25.10;45.20;;;;;;5098916;28;19977;-58
2023/11/03 13:37:45;;;;;;;;;;;25.10;45.30;;;;;;5118309;27;19928;-58
2023/11/03 13:40:13;;;;;;;;;;;25.10;45.30;;;;;;5125932;27;19928;-59
2023/11/03 13:42:40;;;;;;;;;;;25.10;45.20;;;;;;5115644;28;19924;-58
2023/11/03 13:45:09;;;;;;;;;;;25.10;45.20;;;;;;5103458;28;19943;-58
2023/11/03 13:47:37;;;;;;;;;;;25.10;45.30;;;;;;5128773;27;19959;-57
2023/11/03 13:50:08;;;;;;;;;;;25.10;45.30;;;;;;5127200;27;19931;-58
2023/11/03 13:52:47;;;;;;;;;;;25.10;45.30;;;;;;5116513;28;19930;-58
2023/11/03 13:55:16;;;;;;;;;;;25.00;45.30;;;;;;5113092;28;20375;-58
2023/11/03 13:57:44;;;;;;;;;;;25.00;45.30;;;;;;5108822;28;19930;-58
2023/11/03 14:00:13;;;;;;;;;;;25.00;45.30;;;;;;5105270;28;19928;-58
2023/11/03 14:02:41;;;;;;;;;;;25.00;45.30;;;;;;5111807;28;19924;-58
2023/11/03 14:05:10;;;;;;;;;;;25.00;45.50;;;;;;5114156;28;20425;-58
2023/11/03 14:07:41;;;;;;;;;;;24.90;45.60;;;;;;5113827;28;20325;-59
2023/11/03 14:10:14;;;;;;;;;;;24.90;45.70;;;;;;5114738;27;19927;-58
2023/11/03 14:12:42;;;;;;;;;;;24.90;46.00;;;;;;5117688;27;19924;-58
2023/11/03 14:15:12;;;;;;;;;;;24.90;46.30;;;;;;5115765;28;19928;-58
2023/11/03 14:17:40;;;;;;;;;;;24.90;46.50;;;;;;5115939;28;19981;-57
2023/11/03 14:20:09;;;;;;;;;;;24.90;46.70;;;;;;5115400;28;19934;-58
2023/11/03 14:22:36;;;;;;;;;;;24.80;46.90;;;;;;5115922;28;19930;-58